Terminal Aerodrome Forecast
Issued by NWS

Home | Current Version | Previous Version | Text Only | Print | Product List | Glossary On
Versions: 1 2 3 4 5 6 7 8 9 10 11 12 13 14 15 16 17 18 19 20 21
000
FTUS43 KICT 242322
TAFSLN
TAF
KSLN 242322Z 2500/2524 09013G19KT P6SM VCTS SCT020 BKN035CB
      TEMPO 2500/2503 VRB25G45KT 2SM +TSRAGR BKN018CB
     FM250300 19015G22KT P6SM VCTS SCT025 OVC050CB
      TEMPO 2503/2505 3SM TSRA OVC025CB
     FM250600 30010KT P6SM BKN080 OVC250
     FM251900 36012KT P6SM SCT050 BKN100=

USA.gov is the U.S. government's official web portal to all federal, state and local government web resources and services.